Impacts METAR Board
IDs:

KFKL - Franklin/Lamberton F, PA, US

Updated at: 2300 UTC 01 Feb 2023
Potential Impact None Slight Moderate High
Time 01/11Z 01/12Z 01/13Z 01/14Z 01/15Z 01/16Z 01/17Z 01/18Z 01/19Z 01/20Z 01/21Z 01/22Z 01/23Z
Temp9 12 11 15 17 21 24 26 26 28 27 25 19
Dewpt7 10 9 13 12 13 12 12 11 12 11 10 8
Altim30.24 30.26 30.27 30.29 30.32 30.32 30.30 30.28 30.26 30.25 30.24 30.24 30.23
VIS8 9 9 9 9 9 10 10 10 10 10 10 10
CIG25 25 27 -- 23 20 -- -- -- -- -- -- --
CoverOVCOVCBKNFEWBKNOVCFEWCLRCLRCLRCLRCLRCLR
FltCatMVFRMVFRMVFRVFRMVFRMVFRVFRVFRVFRVFRVFRVFRVFR
WX-SN-SN-SN-SN-SN-SN--------------
WDir2202402102402602502602502702802702500
WSpd3 4 4 7 8 12 10 9 5 6 6 4 0
WGst-- -- -- -- -- -- -- -- -- -- -- -- --
Raw hourly METARs
KFKL 011056Z AUTO 22003KT 8SM -SN OVC025 M13/M14 A3024 RMK AO2 SLP271 P0000 T11281139 FZRANO
KFKL 011156Z AUTO 24004KT 9SM -SN OVC025 M11/M12 A3026 RMK AO2 SLP277 P0000 60000 T11111122 11111 21128 53008 FZRANO
KFKL 011256Z AUTO 21004KT 9SM -SN BKN027 M12/M13 A3027 RMK AO2 SLP282 P0000 T11171128 FZRANO
KFKL 011356Z AUTO 24007KT 9SM -SN FEW027 M09/M11 A3029 RMK AO2 SLP287 P0000 T10941106 FZRANO
KFKL 011456Z AUTO 26008KT 9SM -SN BKN023 M08/M11 A3032 RMK AO2 SLP295 P0000 60000 T10831111 51016 FZRANO
KFKL 011556Z AUTO 25012KT 9SM -SN OVC020 M06/M11 A3032 RMK AO2 SLP296 P0000 T10611106 FZRANO
KFKL 011656Z AUTO 26010KT 10SM FEW022 M04/M11 A3030 RMK AO2 SNE32 SLP289 P0000 T10441111 FZRANO
KFKL 011756Z AUTO 25009KT 10SM CLR M03/M11 A3028 RMK AO2 SLP281 60000 T10331111 11033 21117 58014 FZRANO
KFKL 011856Z AUTO 27005KT 10SM CLR M03/M12 A3026 RMK AO2 SLP274 T10331117 FZRANO
KFKL 011956Z AUTO 28006KT 10SM CLR M02/M11 A3025 RMK AO2 SLP272 T10221111 FZRANO
KFKL 012056Z AUTO 27006KT 10SM CLR M03/M12 A3024 RMK AO2 SLP269 T10281117 56011 FZRANO
KFKL 012156Z AUTO 25004KT 10SM CLR M04/M12 A3024 RMK AO2 SLP268 T10391122 FZRANO
KFKL 012256Z AUTO 00000KT 10SM CLR M07/M13 A3023 RMK AO2 SLP270 T10721133 FZRANO



Page loaded:  23:01 UTC  |   03:01 PM Pacific  |   04:01 PM Mountain  |   05:01 PM Central  |   06:01 PM Eastern

 

ADVISORIES

FORECASTS

FORECASTS

OBSERVATIONS

USER TOOLS

ABOUT US